Time;durP1;ratioP1;P1;durP2;ratioP2;P2;SDS_P1;SDS_P2;PMS_P1;PMS_P2;Temp;Humidity;BMP_temperature;BMP_pressure;BME280_temperature;BME280_humidity;BME280_pressure;Samples;Min_cycle;Max_cycle;Signal;HPM_P1;HPM_P2
2022/12/01 00:01:04;;;;;;;1.63;1.20;;;;;;;1.95;94.39;93647.44;5051009;28;20036;-34
2022/12/01 00:03:30;;;;;;;1.42;1.10;;;;;;;1.95;94.83;93649.44;5051223;28;20040;-34
2022/12/01 00:05:59;;;;;;;1.30;1.20;;;;;;;1.98;95.20;93641.03;5050696;28;20047;-34
2022/12/01 00:08:24;;;;;;;1.73;1.38;;;;;;;2.06;94.73;93639.34;5050749;28;20112;-34
2022/12/01 00:10:50;;;;;;;1.17;1.08;;;;;;;2.13;94.25;93627.22;5050810;28;20132;-34
2022/12/01 00:13:15;;;;;;;6.18;1.10;;;;;;;2.21;93.58;93639.13;5050815;28;20029;-34
2022/12/01 00:15:41;;;;;;;1.67;1.20;;;;;;;2.27;93.04;93634.47;5051004;28;20059;-34
2022/12/01 00:18:06;;;;;;;1.00;0.95;;;;;;;2.28;92.59;93635.94;5050886;28;20061;-34
2022/12/01 00:20:33;;;;;;;1.45;1.13;;;;;;;2.30;92.17;93633.47;5050571;28;20390;-34
2022/12/01 00:22:58;;;;;;;1.98;1.33;;;;;;;2.30;91.59;93630.75;5050569;28;20032;-34
2022/12/01 00:25:24;;;;;;;1.23;1.02;;;;;;;2.27;91.76;93629.03;5050466;28;20021;-34
2022/12/01 00:27:51;;;;;;;1.80;1.10;;;;;;;2.12;91.93;93626.47;5049556;28;20032;-34
2022/12/01 00:30:18;;;;;;;1.85;0.95;;;;;;;2.07;92.29;93626.47;5063019;28;20412;-34
2022/12/01 00:32:44;;;;;;;1.40;1.30;;;;;;;2.07;93.22;93623.75;5070425;28;20028;-34
2022/12/01 00:37:25;;;;;;;7.50;3.40;;;;;;;1.98;94.02;93623.94;5067530;28;20609;-34
2022/12/01 00:39:50;;;;;;;6.97;3.85;;;;;;;2.05;94.43;93620.78;5067510;28;20123;-34
2022/12/01 00:42:19;;;;;;;3.85;2.70;;;;;;;2.10;94.15;93631.66;5067769;28;20028;-34
2022/12/01 00:44:45;;;;;;;4.45;2.13;;;;;;;2.12;93.67;93625.75;5067831;28;20028;-34
2022/12/01 00:47:11;;;;;;;3.90;2.30;;;;;;;2.09;94.00;93624.75;5067695;28;20036;-34
2022/12/01 00:49:36;;;;;;;2.85;2.10;;;;;;;2.03;93.60;93617.78;5067412;28;20436;-34
2022/12/01 00:52:01;;;;;;;2.58;1.58;;;;;;;2.03;94.02;93618.53;5067591;28;20581;-34
2022/12/01 00:54:30;;;;;;;1.58;1.02;;;;;;;2.11;93.64;93613.34;5067512;28;20411;-34
2022/12/01 00:56:57;;;;;;;1.65;1.00;;;;;;;2.12;93.43;93618.31;5067478;28;20025;-34
2022/12/01 00:59:23;;;;;;;1.95;1.23;;;;;;;2.11;92.71;93611.38;5067164;28;20040;-34
2022/12/01 01:01:48;;;;;;;2.30;1.25;;;;;;;2.10;93.50;93609.16;5067378;28;20025;-34
2022/12/01 01:04:14;;;;;;;6.15;1.13;;;;;;;2.07;93.88;93613.59;5067023;28;20032;-34
2022/12/01 01:06:42;;;;;;;1.30;1.10;;;;;;;2.11;93.35;93613.34;5066903;28;20078;-34
2022/12/01 01:09:08;;;;;;;1.75;1.55;;;;;;;2.14;93.45;93607.66;5066997;28;20520;-34
2022/12/01 01:11:33;;;;;;;2.47;1.15;;;;;;;2.17;92.94;93605.94;5066839;28;20087;-34
2022/12/01 01:13:59;;;;;;;1.95;1.40;;;;;;;2.14;92.96;93604.94;5066863;28;20032;-34
2022/12/01 01:16:25;;;;;;;1.42;1.08;;;;;;;2.06;93.53;93603.94;5067057;28;20029;-34
2022/12/01 01:18:51;;;;;;;2.00;1.40;;;;;;;2.10;93.21;93606.44;5066705;28;20034;-34
2022/12/01 01:21:19;;;;;;;1.23;1.13;;;;;;;2.11;93.75;93602.47;5066649;28;20111;-34
2022/12/01 01:23:45;;;;;;;2.55;1.77;;;;;;;2.20;93.84;93599.53;5066648;28;20516;-34
2022/12/01 01:26:18;;;;;;;1.80;1.05;;;;;;;2.19;92.94;93598.78;5064954;28;20021;-34
2022/12/01 01:28:44;;;;;;;2.35;1.40;;;;;;;2.13;93.18;93600.75;5066554;28;20039;-34
2022/12/01 01:31:12;;;;;;;5.00;1.95;;;;;;;1.93;94.99;93583.81;5086427;28;20028;-34
2022/12/01 01:33:38;;;;;;;1.60;1.50;;;;;;;1.92;95.12;93591.28;5087021;28;20077;-34
2022/12/01 01:36:04;;;;;;;1.50;1.30;;;;;;;1.81;96.04;93585.03;5086351;28;20040;-34
2022/12/01 01:38:30;;;;;;;7.00;2.75;;;;;;;1.72;97.00;93593.41;5086583;28;20028;-34
2022/12/01 01:40:55;;;;;;;2.83;1.40;;;;;;;1.85;96.82;93585.53;5086670;28;20043;-34
2022/12/01 01:43:39;;;;;;;1.90;0.93;;;;;;;1.79;95.71;93577.34;5085654;28;20053;-34
2022/12/01 01:46:05;;;;;;;2.38;1.10;;;;;;;1.84;94.95;93589.50;5086447;28;20028;-34
2022/12/01 01:48:31;;;;;;;0.95;0.80;;;;;;;1.89;94.66;93583.31;5074500;28;20107;-34
2022/12/01 01:50:57;;;;;;;0.70;0.70;;;;;;;1.90;94.14;93585.56;5072932;28;20511;-34
2022/12/01 01:53:23;;;;;;;1.20;1.00;;;;;;;1.92;93.66;93580.38;5071672;28;20037;-34
2022/12/01 01:55:48;;;;;;;1.23;0.90;;;;;;;1.92;92.97;93585.06;5073092;28;20024;-34
2022/12/01 01:58:14;;;;;;;0.60;0.60;;;;;;;1.89;93.26;93586.03;5072688;28;20105;-34
2022/12/01 02:00:41;;;;;;;0.88;0.82;;;;;;;1.91;93.20;93586.28;5071807;28;20030;-34
2022/12/01 02:03:09;;;;;;;2.15;1.02;;;;;;;1.97;92.75;93581.63;5072972;28;20056;-34
2022/12/01 02:05:35;;;;;;;0.65;0.65;;;;;;;1.90;92.24;93582.84;5071711;28;20111;-34
2022/12/01 02:08:02;;;;;;;1.17;1.08;;;;;;;1.82;92.29;93575.63;5072858;28;20025;-34
2022/12/01 02:10:37;;;;;;;0.73;0.70;;;;;;;1.86;91.51;93576.91;5072502;28;20485;-34
2022/12/01 02:13:28;;;;;;;1.27;0.95;;;;;;;1.91;91.97;93583.56;5072527;28;20031;-34
2022/12/01 02:16:12;;;;;;;0.70;0.70;;;;;;;1.92;91.43;93572.22;5065823;28;20028;-34
2022/12/01 02:18:57;;;;;;;2.53;1.15;;;;;;;1.88;91.80;93577.16;5052632;28;20029;-34
2022/12/01 02:22:06;;;;;;;1.33;0.90;;;;;;;1.94;91.07;93571.72;5051238;28;20044;-34
2022/12/01 02:25:04;;;;;;;0.85;0.60;;;;;;;1.96;90.43;93571.97;5031766;28;20493;-34
2022/12/01 02:27:47;;;;;;;0.85;0.85;;;;;;;1.89;91.44;93566.97;5052602;28;20079;-34
2022/12/01 02:30:16;;;;;;;1.13;1.02;;;;;;;1.92;92.11;93564.03;5054665;28;20047;-34
2022/12/01 02:32:56;;;;;;;1.65;1.40;;;;;;;1.96;92.36;93570.00;5070969;28;20105;-34
2022/12/01 02:35:45;;;;;;;1.38;1.15;;;;;;;2.01;92.46;93568.53;5072096;28;20146;-34
2022/12/01 02:38:32;;;;;;;2.70;1.38;;;;;;;2.01;93.26;93561.09;5070835;28;20036;-34
2022/12/01 02:41:36;;;;;;;0.75;0.75;;;;;;;1.92;93.60;93569.50;5072317;28;20039;-34
2022/12/01 02:44:22;;;;;;;1.98;1.33;;;;;;;1.95;92.70;93563.03;5071489;28;20064;-34
2022/12/01 02:46:59;;;;;;;2.22;1.17;;;;;;;1.99;93.10;93562.81;5071941;28;20027;-34
2022/12/01 02:49:28;;;;;;;1.13;0.85;;;;;;;2.00;92.54;93558.84;5070665;28;20036;-34
2022/12/01 02:51:54;;;;;;;0.63;0.63;;;;;;;2.00;92.81;93565.06;5070875;28;20040;-34
2022/12/01 02:54:21;;;;;;;0.60;0.60;;;;;;;2.01;92.21;93563.84;5070731;28;20028;-34
2022/12/01 02:56:51;;;;;;;1.13;0.90;;;;;;;2.07;92.44;93567.31;5071579;28;20036;-34
2022/12/01 02:59:16;;;;;;;1.60;1.08;;;;;;;2.06;92.23;93570.50;5070986;28;20036;-34
2022/12/01 03:02:20;;;;;;;1.27;0.70;;;;;;;2.01;91.60;93566.56;5071556;28;20025;-34
2022/12/01 03:05:04;;;;;;;1.02;0.80;;;;;;;2.02;91.33;93570.75;5071535;28;20028;-34
2022/12/01 03:07:31;;;;;;;0.68;0.65;;;;;;;2.07;90.52;93563.84;5070228;28;20036;-34
2022/12/01 03:10:15;;;;;;;0.80;0.80;;;;;;;2.15;89.89;93562.13;5071716;28;20518;-34
2022/12/01 03:12:53;;;;;;;1.25;0.95;;;;;;;2.23;89.75;93572.03;5060558;28;20028;-34
2022/12/01 03:15:39;;;;;;;1.05;0.75;;;;;;;2.24;90.06;93570.06;5050263;28;20021;-34
2022/12/01 03:18:38;;;;;;;1.35;1.00;;;;;;;2.12;89.47;93561.13;5051178;28;20025;-34
2022/12/01 03:21:19;;;;;;;21.10;6.93;;;;;;;2.03;90.54;93555.16;5051161;28;20110;-34
2022/12/01 03:23:49;;;;;;;63.65;25.83;;;;;;;2.03;90.69;93552.44;5051405;28;20029;-34
2022/12/01 03:26:18;;;;;;;23.73;8.90;;;;;;;1.99;91.18;93558.09;5049503;28;20025;-34
2022/12/01 03:28:46;;;;;;;;;;;;;;;2.01;91.01;93552.94;5058632;28;20028;-34
2022/12/01 03:31:16;;;;;;;5.75;3.50;;;;;;;1.95;90.83;93552.16;5050979;28;19947;-34
2022/12/01 03:33:49;;;;;;;5.57;4.03;;;;;;;1.99;90.55;93557.38;5050137;28;20416;-34
2022/12/01 03:36:19;;;;;;;8.05;4.40;;;;;;;1.94;90.63;93555.38;5049532;28;20041;-34
2022/12/01 03:38:49;;;;;;;5.35;2.78;;;;;;;1.97;91.43;93555.13;5049785;28;20029;-34
2022/12/01 03:41:18;;;;;;;8.13;4.05;;;;;;;2.01;91.55;93555.66;5049965;28;20386;-34
2022/12/01 03:43:44;;;;;;;;;;;;;;;2.06;91.61;93551.44;5050416;28;20486;-34
2022/12/01 03:46:22;;;;;;;3.47;1.73;;;;;;;2.03;91.07;93555.91;5049885;28;19939;-34
2022/12/01 03:48:47;;;;;;;2.17;1.10;;;;;;;1.87;90.29;93550.41;5050680;28;20033;-33
2022/12/01 03:51:21;;;;;;;3.30;1.70;;;;;;;1.72;89.89;93549.84;5050983;28;20027;-34
2022/12/01 03:54:25;;;;;;;1.70;1.50;;;;;;;1.74;90.92;93547.38;5050560;28;20037;-34
2022/12/01 03:56:55;;;;;;;3.63;1.90;;;;;;;1.72;91.40;93545.16;4992104;28;20063;-34
2022/12/01 03:59:21;;;;;;;1.95;0.95;;;;;;;1.75;90.95;93538.75;5039956;28;20037;-34
2022/12/01 04:01:47;;;;;;;1.95;1.10;;;;;;;1.75;90.51;93533.31;5049273;28;20025;-34
2022/12/01 04:04:13;;;;;;;1.00;0.90;;;;;;;1.76;90.79;93540.22;5050366;28;20024;-34
2022/12/01 04:06:44;;;;;;;0.93;0.85;;;;;;;1.70;91.66;93544.91;5050358;28;20504;-34
2022/12/01 04:09:10;;;;;;;0.73;0.70;;;;;;;1.75;92.54;93540.72;5050418;28;20056;-34
2022/12/01 04:14:19;;;;;;;2.67;1.45;;;;;;;1.74;93.51;93541.94;5050578;28;20083;-34
2022/12/01 04:16:44;;;;;;;1.30;1.17;;;;;;;1.71;91.85;93535.50;5050085;28;20025;-34
2022/12/01 04:19:10;;;;;;;4.63;2.42;;;;;;;1.84;91.45;93541.22;5050300;28;20028;-34
2022/12/01 04:21:35;;;;;;;3.35;2.08;;;;;;;1.79;91.21;93528.38;5050157;28;20047;-34
2022/12/01 04:24:01;;;;;;;1.77;1.48;;;;;;;1.87;91.37;93539.50;5050464;28;20025;-34
2022/12/01 04:26:32;;;;;;;22.20;8.70;;;;;;;1.89;91.33;93537.03;5049779;28;20048;-34
2022/12/01 04:29:03;;;;;;;12.88;7.32;;;;;;;2.04;90.19;93549.22;5051756;28;20093;-34
2022/12/01 04:31:29;;;;;;;4.30;2.53;;;;;;;1.96;89.82;93556.38;5070142;28;20513;-34
2022/12/01 04:33:55;;;;;;;3.58;2.55;;;;;;;2.02;89.88;93561.81;5070425;28;20110;-34
2022/12/01 04:36:22;;;;;;;4.78;3.30;;;;;;;2.05;90.09;93558.13;5069802;28;20045;-34
2022/12/01 04:38:47;;;;;;;1.38;1.10;;;;;;;2.07;89.60;93558.38;5070361;28;20082;-34
2022/12/01 04:41:13;;;;;;;1.50;0.73;;;;;;;2.04;89.30;93564.81;5070395;28;20021;-34
2022/12/01 04:43:39;;;;;;;0.80;0.80;;;;;;;2.07;89.22;93561.09;5070040;28;20102;-34
2022/12/01 04:46:05;;;;;;;0.50;0.40;;;;;;;2.04;88.68;93551.94;5069971;28;20146;-34
2022/12/01 04:48:30;;;;;;;0.77;0.70;;;;;;;1.94;88.56;93558.84;5069976;28;20045;-34
2022/12/01 04:50:56;;;;;;;0.50;0.50;;;;;;;1.87;88.95;93555.84;5070289;28;20082;-34
2022/12/01 04:53:22;;;;;;;1.00;1.00;;;;;;;1.79;89.08;93550.13;5070222;28;20552;-34
2022/12/01 04:55:47;;;;;;;2.13;1.30;;;;;;;1.79;89.24;93561.03;5069792;28;20060;-34
2022/12/01 04:58:12;;;;;;;7.13;3.63;;;;;;;1.70;90.20;93558.50;5069859;28;20032;-34
2022/12/01 05:00:38;;;;;;;3.33;1.73;;;;;;;1.67;90.54;93567.63;5070102;28;20040;-34
2022/12/01 05:03:04;;;;;;;2.75;1.80;;;;;;;1.61;90.86;93564.16;5068615;28;20024;-34
2022/12/01 05:05:30;;;;;;;0.80;0.80;;;;;;;1.49;89.52;93540.88;5056291;28;20116;-34
2022/12/01 05:07:57;;;;;;;0.95;0.70;;;;;;;1.53;89.43;93558.44;5049708;28;20509;-34
2022/12/01 05:10:23;;;;;;;1.20;0.95;;;;;;;1.38;89.64;93552.44;5049666;28;20033;-34
2022/12/01 05:12:48;;;;;;;9.65;4.03;;;;;;;1.37;90.61;93572.69;5050063;28;20520;-34
2022/12/01 05:15:14;;;;;;;2.40;0.80;;;;;;;1.34;90.38;93570.94;5049700;28;20485;-34
2022/12/01 05:17:40;;;;;;;0.60;0.60;;;;;;;1.36;89.99;93565.78;5049648;28;20075;-34
2022/12/01 05:22:51;;;;;;;3.17;1.23;;;;;;;1.38;89.90;93565.28;5051322;28;20424;-34
2022/12/01 05:25:17;;;;;;;1.50;1.40;;;;;;;1.33;90.16;93560.56;5053341;28;20091;-34
2022/12/01 05:27:43;;;;;;;3.17;0.90;;;;;;;1.38;90.11;93565.28;5053429;28;20111;-34
2022/12/01 05:30:09;;;;;;;1.75;1.52;;;;;;;1.32;89.13;93562.53;5064769;28;20116;-33
2022/12/01 05:32:35;;;;;;;1.35;0.95;;;;;;;1.32;89.87;93565.25;5073465;28;20066;-34
2022/12/01 05:35:00;;;;;;;0.40;0.40;;;;;;;1.35;89.65;93567.00;5073161;28;20059;-34
2022/12/01 05:37:27;;;;;;;1.13;0.90;;;;;;;1.34;89.71;93567.50;5073075;28;20036;-34
2022/12/01 05:39:52;;;;;;;3.10;1.85;;;;;;;1.29;89.52;93557.31;5073485;28;20025;-33
2022/12/01 05:42:17;;;;;;;2.38;1.30;;;;;;;1.36;89.89;93565.03;5073006;28;20029;-34
2022/12/01 05:44:43;;;;;;;2.78;1.88;;;;;;;1.35;89.60;93572.44;5073033;28;20025;-33
2022/12/01 05:47:08;;;;;;;3.10;2.08;;;;;;;1.43;89.84;93572.72;5073044;28;20020;-33
2022/12/01 05:49:34;;;;;;;1.38;1.27;;;;;;;1.47;89.96;93567.81;5072927;28;20090;-34
2022/12/01 05:51:59;;;;;;;1.35;0.98;;;;;;;1.51;89.80;93573.75;5072981;28;20029;-34
2022/12/01 05:54:25;;;;;;;4.82;2.80;;;;;;;1.47;89.39;93571.25;5072716;28;20085;-34
2022/12/01 05:56:50;;;;;;;5.03;3.35;;;;;;;1.55;89.43;93577.00;5073047;28;20021;-34
2022/12/01 05:59:15;;;;;;;8.43;4.72;;;;;;;1.65;89.20;93578.28;5072695;28;20470;-34
2022/12/01 06:01:41;;;;;;;6.05;4.55;;;;;;;1.58;88.60;93584.19;5059767;28;20057;-34
2022/12/01 06:04:07;;;;;;;3.58;2.55;;;;;;;1.51;88.33;93590.09;5052907;28;20082;-33
2022/12/01 06:06:33;;;;;;;4.68;3.58;;;;;;;1.49;88.30;93584.41;5052686;28;20013;-34
2022/12/01 06:08:58;;;;;;;3.83;2.80;;;;;;;1.54;88.52;93598.00;5052940;28;20090;-34
2022/12/01 06:11:24;;;;;;;3.33;1.67;;;;;;;1.46;87.96;93588.06;5051408;28;20572;-34
2022/12/01 06:13:49;;;;;;;2.58;2.00;;;;;;;1.45;88.63;93573.72;5052503;28;20082;-34
2022/12/01 06:16:14;;;;;;;2.72;1.88;;;;;;;1.51;88.59;93571.78;5052293;28;20033;-34
2022/12/01 06:18:40;;;;;;;4.05;2.88;;;;;;;1.48;88.68;93578.19;5052596;28;20051;-34
2022/12/01 06:21:05;;;;;;;6.03;4.38;;;;;;;1.52;87.88;93577.97;5052727;28;20033;-34
2022/12/01 06:23:31;;;;;;;14.60;7.32;;;;;;;1.42;88.14;93579.41;5052295;28;20025;-34
2022/12/01 06:25:57;;;;;;;24.23;8.98;;;;;;;1.48;87.34;93574.72;5052230;28;20063;-34
2022/12/01 06:28:22;;;;;;;18.67;7.03;;;;;;;1.42;87.26;93582.88;5057768;28;20047;-33
2022/12/01 06:30:48;;;;;;;15.93;6.85;;;;;;;1.40;87.31;93587.31;5055679;28;20025;-34
2022/12/01 06:33:13;;;;;;;16.20;5.85;;;;;;;1.46;87.31;93590.78;5050963;28;20032;-34
2022/12/01 06:35:39;;;;;;;8.75;3.45;;;;;;;1.37;86.68;93585.53;5051885;28;20131;-34
2022/12/01 06:38:04;;;;;;;5.55;3.15;;;;;;;1.20;87.06;93582.00;5052001;28;20052;-34
2022/12/01 06:40:30;;;;;;;16.88;8.43;;;;;;;1.19;87.25;93580.50;5052338;28;20029;-34
2022/12/01 06:43:00;;;;;;;5.57;2.95;;;;;;;1.21;87.35;93588.94;5052235;28;20082;-34
2022/12/01 06:45:25;;;;;;;18.15;8.27;;;;;;;1.15;88.36;93575.28;5052014;28;20055;-33
2022/12/01 06:47:55;;;;;;;8.48;4.47;;;;;;;1.21;88.24;93584.22;5051919;28;20135;-33
2022/12/01 06:50:20;;;;;;;3.28;1.88;;;;;;;1.19;88.40;93585.94;5052069;28;20025;-34
2022/12/01 06:52:46;;;;;;;11.27;5.80;;;;;;;1.16;87.99;93578.75;5051829;28;20676;-34
2022/12/01 06:55:12;;;;;;;5.20;2.63;;;;;;;1.18;87.87;93585.19;5051970;28;20497;-34
2022/12/01 06:57:38;;;;;;;10.40;5.82;;;;;;;1.22;87.86;93587.69;5051568;28;20497;-34
2022/12/01 07:00:04;;;;;;;7.35;3.58;;;;;;;1.21;87.92;93588.94;5051921;28;20021;-34
2022/12/01 07:02:29;;;;;;;9.48;3.65;;;;;;;1.11;87.43;93576.72;5051908;28;20024;-34
2022/12/01 07:04:55;;;;;;;7.90;3.55;;;;;;;1.16;86.90;93592.34;5050706;28;20036;-34
2022/12/01 07:07:20;;;;;;;7.78;4.88;;;;;;;1.15;87.50;93590.88;5051856;28;20025;-34
2022/12/01 07:09:45;;;;;;;8.50;4.22;;;;;;;1.15;87.56;93593.59;5051749;28;20721;-34
2022/12/01 07:12:11;;;;;;;3.78;2.75;;;;;;;1.17;87.24;93599.28;5050324;28;20108;-34
2022/12/01 07:14:36;;;;;;;5.57;3.13;;;;;;;1.19;87.32;93596.81;5051629;28;20025;-34
2022/12/01 07:17:02;;;;;;;2.60;1.90;;;;;;;1.23;87.49;93600.81;5051541;28;20083;-34
2022/12/01 07:19:28;;;;;;;5.47;3.30;;;;;;;1.18;87.29;93598.03;5051195;28;20022;-34
2022/12/01 07:21:53;;;;;;;8.80;4.88;;;;;;;1.20;87.69;93601.03;5050111;28;20021;-34
2022/12/01 07:24:19;;;;;;;7.63;5.05;;;;;;;1.24;87.49;93594.13;5051465;28;20079;-34
2022/12/01 07:26:44;;;;;;;4.55;2.42;;;;;;;1.28;87.34;93602.06;5050798;28;20690;-33
2022/12/01 07:29:10;;;;;;;2.35;1.88;;;;;;;1.26;87.63;93599.81;5054120;28;20023;-34
2022/12/01 07:31:36;;;;;;;0.82;0.82;;;;;;;1.26;87.48;93599.81;5070948;28;20082;-34
2022/12/01 07:34:02;;;;;;;4.10;2.40;;;;;;;1.25;87.02;93594.88;5071042;28;20016;-34
2022/12/01 07:36:28;;;;;;;8.48;4.65;;;;;;;1.27;87.58;93600.59;5070529;28;20043;-34
2022/12/01 07:38:53;;;;;;;6.15;3.88;;;;;;;1.25;87.50;93598.34;5070894;28;20078;-34
2022/12/01 07:41:19;;;;;;;6.03;3.42;;;;;;;1.35;87.14;93601.59;5070893;28;20031;-34
2022/12/01 07:43:45;;;;;;;10.98;3.95;;;;;;;1.35;87.47;93609.78;5070723;28;20472;-34
2022/12/01 07:46:19;;;;;;;3.88;3.45;;;;;;;1.41;87.11;93602.38;5070224;28;20075;-34
2022/12/01 07:48:45;;;;;;;2.92;2.42;;;;;;;1.51;87.01;93598.25;5070660;28;20021;-34
2022/12/01 07:51:15;;;;;;;4.53;3.30;;;;;;;1.51;86.04;93604.44;5071076;28;20031;-34
2022/12/01 07:53:41;;;;;;;1.83;1.73;;;;;;;1.51;85.77;93600.97;5062003;28;20021;-34
2022/12/01 07:56:07;;;;;;;2.55;1.50;;;;;;;1.52;85.76;93602.44;5050755;28;20029;-34
2022/12/01 07:58:32;;;;;;;1.70;1.48;;;;;;;1.49;86.34;93601.44;5050635;28;20083;-33
2022/12/01 08:00:58;;;;;;;1.95;1.77;;;;;;;1.59;86.31;93602.00;5050463;28;20032;-34
2022/12/01 08:03:23;;;;;;;3.47;2.10;;;;;;;1.60;86.51;93602.75;5050906;28;20044;-34
2022/12/01 08:05:59;;;;;;;1.45;1.35;;;;;;;1.66;86.70;93596.09;5050805;28;20016;-34
2022/12/01 08:08:25;;;;;;;1.52;1.42;;;;;;;1.48;86.50;93569.28;5050422;28;20028;-34
2022/12/01 08:10:51;;;;;;;2.40;2.10;;;;;;;1.77;86.95;93600.84;5050733;28;20020;-34
2022/12/01 08:13:17;;;;;;;2.13;1.70;;;;;;;1.75;86.97;93590.47;5050641;28;20027;-34
2022/12/01 08:15:42;;;;;;;1.40;1.30;;;;;;;1.90;86.03;93595.72;5050379;28;20525;-34
2022/12/01 08:18:08;;;;;;;1.92;1.60;;;;;;;1.87;86.14;93602.88;5050441;28;20437;-34
2022/12/01 08:20:33;;;;;;;1.92;1.48;;;;;;;1.90;85.36;93609.31;5050224;28;20055;-34
2022/12/01 08:23:00;;;;;;;4.30;1.98;;;;;;;1.87;85.32;93594.72;5050294;28;20025;-34
2022/12/01 08:25:29;;;;;;;8.02;2.10;;;;;;;1.98;84.59;93611.09;5049892;28;20063;-34
2022/12/01 08:27:55;;;;;;;1.58;1.30;;;;;;;2.03;85.34;93612.34;5051962;28;20028;-34
2022/12/01 08:32:42;;;;;;;3.03;1.45;;;;;;;2.05;84.81;93612.59;5067596;28;20606;-34
2022/12/01 08:35:08;;;;;;;1.67;1.35;;;;;;;2.11;84.77;93614.09;5067813;28;20112;-34
2022/12/01 08:37:33;;;;;;;4.25;1.27;;;;;;;2.13;84.78;93611.63;5067475;28;20083;-34
2022/12/01 08:39:58;;;;;;;1.73;1.42;;;;;;;2.10;85.04;93617.31;5067502;28;20025;-34
2022/12/01 08:42:24;;;;;;;1.52;1.42;;;;;;;2.15;84.73;93613.88;5067324;28;20028;-34
2022/12/01 08:44:49;;;;;;;0.70;0.70;;;;;;;2.22;84.38;93613.41;5067644;28;20035;-34
2022/12/01 08:47:15;;;;;;;1.02;0.93;;;;;;;2.21;83.80;93614.63;5067359;28;20020;-34
2022/12/01 08:49:40;;;;;;;0.60;0.60;;;;;;;2.18;83.57;93607.44;5067170;28;20033;-34
2022/12/01 08:52:06;;;;;;;0.50;0.50;;;;;;;2.15;83.50;93619.31;5067080;28;20021;-34
2022/12/01 08:54:31;;;;;;;0.68;0.60;;;;;;;2.08;83.04;93615.06;5067185;28;20027;-34
2022/12/01 08:56:57;;;;;;;0.68;0.68;;;;;;;2.04;83.47;93617.28;5067228;28;20025;-34
2022/12/01 08:59:22;;;;;;;0.93;0.70;;;;;;;2.01;82.75;93615.56;5067054;28;20086;-34
2022/12/01 09:01:56;;;;;;;2.70;1.30;;;;;;;1.96;83.05;93607.34;5067209;28;20082;-34
2022/12/01 09:04:25;;;;;;;3.40;2.20;;;;;;;1.91;83.15;93608.81;5067274;28;20025;-34
2022/12/01 09:06:52;;;;;;;2.72;1.50;;;;;;;1.93;83.11;93602.88;5066886;28;20055;-34
2022/12/01 09:09:21;;;;;;;12.55;6.70;;;;;;;1.90;83.38;93604.63;5066912;28;20021;-33
2022/12/01 09:11:47;;;;;;;26.77;11.98;;;;;;;1.91;83.27;93599.91;5067035;28;20702;-34
2022/12/01 09:14:14;;;;;;;9.27;4.15;;;;;;;1.93;82.59;93597.44;5066758;28;20040;-33
2022/12/01 09:16:40;;;;;;;2.53;1.45;;;;;;;1.92;82.76;93590.53;5066948;28;20025;-34
2022/12/01 09:19:06;;;;;;;3.13;2.22;;;;;;;1.87;83.05;93588.50;5067044;28;20112;-34
2022/12/01 09:21:32;;;;;;;4.30;2.20;;;;;;;1.77;83.23;93587.25;5066717;28;20124;-34
2022/12/01 09:23:59;;;;;;;1.58;1.20;;;;;;;1.76;83.73;93591.94;5066948;28;20023;-33
2022/12/01 09:26:25;;;;;;;4.22;1.80;;;;;;;1.82;83.22;93587.25;5066373;28;20031;-34
2022/12/01 09:28:56;;;;;;;5.88;2.92;;;;;;;1.86;83.25;93590.50;5075445;28;20488;-34
2022/12/01 09:31:24;;;;;;;1.58;1.42;;;;;;;1.95;83.15;93586.81;5066185;28;20052;-34
2022/12/01 09:33:57;;;;;;;1.30;1.20;;;;;;;1.91;82.06;93584.31;5066439;28;20029;-33
2022/12/01 09:36:23;;;;;;;3.47;2.40;;;;;;;1.97;82.61;93576.19;5066501;28;20040;-34
2022/12/01 09:38:49;;;;;;;2.92;1.92;;;;;;;1.92;82.59;93579.63;5066171;28;20047;-34
2022/12/01 09:41:19;;;;;;;1.58;1.40;;;;;;;1.99;81.36;93579.88;5066205;28;20028;-34
2022/12/01 09:43:55;;;;;;;4.30;2.97;;;;;;;1.93;82.65;93576.41;5053368;28;20025;-34
2022/12/01 09:46:27;;;;;;;0.90;0.80;;;;;;;2.05;82.56;93571.75;5052967;28;20025;-34
2022/12/01 09:48:56;;;;;;;0.70;0.70;;;;;;;2.04;81.82;93573.72;5052850;28;20523;-34
2022/12/01 09:51:24;;;;;;;1.98;1.20;;;;;;;2.00;82.16;93553.41;5053140;28;20071;-34
2022/12/01 09:53:52;;;;;;;1.52;1.42;;;;;;;2.12;81.99;93563.13;5051597;28;20090;-34
2022/12/01 09:56:22;;;;;;;1.10;0.85;;;;;;;2.10;81.81;93560.13;5052634;28;20061;-34
2022/12/01 09:58:56;;;;;;;1.33;0.90;;;;;;;2.04;81.68;93553.91;5052922;28;20041;-34
2022/12/01 10:01:30;;;;;;;1.45;1.35;;;;;;;2.05;81.79;93536.34;5051758;28;20025;-34
2022/12/01 10:03:59;;;;;;;1.55;1.38;;;;;;;2.23;81.91;93544.06;5052929;28;20405;-34
2022/12/01 10:06:49;;;;;;;2.80;1.90;;;;;;;2.28;81.58;93544.06;5052485;28;20025;-34
2022/12/01 10:09:38;;;;;;;3.08;2.40;;;;;;;2.38;83.04;93533.69;5045207;28;20040;-34
2022/12/01 10:12:13;;;;;;;0.95;0.85;;;;;;;2.38;81.09;93535.66;5051209;28;20029;-34
2022/12/01 10:14:39;;;;;;;2.08;1.10;;;;;;;2.33;81.72;93530.94;5052488;28;20029;-34
2022/12/01 10:17:23;;;;;;;5.15;2.78;;;;;;;2.40;82.41;93533.94;5052597;28;20078;-34
2022/12/01 10:20:09;;;;;;;1.55;1.38;;;;;;;2.47;82.04;93530.72;5052352;28;20111;-34
2022/12/01 10:22:57;;;;;;;4.85;2.20;;;;;;;2.47;81.07;93524.53;5052305;28;20052;-34
2022/12/01 10:25:25;;;;;;;1.65;1.23;;;;;;;2.34;81.14;93511.38;5052241;28;20051;-34
2022/12/01 10:28:04;;;;;;;7.50;4.55;;;;;;;2.40;81.59;93519.56;5052487;28;20390;-34
2022/12/01 10:30:30;;;;;;;;;;;;;;;2.38;81.91;93522.03;5066579;28;20036;-34
2022/12/01 10:32:57;;;;;;;;;;;;;;;2.42;81.86;93519.81;5072709;28;19966;-34
2022/12/01 10:35:27;;;;;;;;;;;;;;;2.59;81.94;93521.31;5071403;28;19909;-34
2022/12/01 10:37:54;;;;;;;;;;;;;;;2.77;82.06;93515.34;5071474;28;20293;-34
2022/12/01 10:40:19;;;;;;;;;;;;;;;2.87;81.31;93516.59;5071265;28;19915;-34
2022/12/01 10:42:45;;;;;;;;;;;;;;;2.92;80.86;93518.56;5071309;28;19987;-34
2022/12/01 10:45:15;;;;;;;;;;;;;;;2.93;80.49;93522.78;5072167;28;19966;-34
2022/12/01 10:47:59;;;;;;;;;;;;;;;2.86;79.00;93519.81;5052654;28;19996;-34
2022/12/01 10:50:25;;;;;;;;;;;;;;;2.83;79.67;93523.53;5052432;28;19962;-34
2022/12/01 10:52:51;;;;;;;;;;;;;;;2.65;79.51;93519.31;5052226;28;19920;-34
2022/12/01 10:55:22;;;;;;;;;;;;;;;2.58;79.73;93513.66;5051229;28;19915;-34
2022/12/01 10:57:47;;;;;;;;;;;;;;;2.62;80.79;93512.13;5052449;28;19917;-34
2022/12/01 11:00:22;;;;;;;;;;;;;;;2.56;79.92;93505.94;5051141;28;19979;-34
2022/12/01 11:02:48;;;;;;;;;;;;;;;2.30;80.31;93505.44;5052081;28;19987;-34
2022/12/01 11:05:20;;;;;;;;;;;;;;;2.24;81.43;93510.88;5052324;28;19946;-34
2022/12/01 11:07:45;;;;;;;;;;;;;;;2.25;81.70;93500.75;5052155;28;19931;-34
2022/12/01 11:10:14;;;;;;;;;;;;;;;2.09;81.97;93501.44;5050709;28;20381;-34
2022/12/01 11:12:40;;;;;;;;;;;;;;;2.15;82.34;93502.19;5051778;28;19909;-34
2022/12/01 11:15:05;;;;;;;;;;;;;;;2.21;81.17;93500.97;5050973;28;20318;-34
2022/12/01 11:17:33;;;;;;;;;;;;;;;2.18;82.47;93503.94;5052017;28;20410;-34
2022/12/01 11:20:01;;;;;;;;;;;;;;;2.26;82.59;93504.94;5050812;28;20316;-34
2022/12/01 11:22:30;;;;;;;;;;;;;;;2.39;82.94;93493.56;5050356;28;19908;-34
2022/12/01 11:24:59;;;;;;;;;;;;;;;2.39;80.93;93497.03;5051624;28;19908;-34
2022/12/01 11:27:26;;;;;;;;;;;;;;;2.40;81.40;93493.06;5051859;28;19908;-34
2022/12/01 11:29:53;;;;;;;;;;;;;;;2.44;82.02;93493.56;5060107;28;20373;-34
2022/12/01 11:32:28;;;;;;;;;;;;;;;2.51;81.79;93490.34;5051247;28;19931;-34
2022/12/01 11:34:56;;;;;;;;;;;;;;;2.51;80.76;93498.53;5051403;28;19909;-33
2022/12/01 11:37:22;;;;;;;;;;;;;;;2.45;81.05;93488.88;5050492;28;19908;-33
2022/12/01 11:39:47;;;;;;;;;;;;;;;2.34;81.07;93492.31;5050125;28;19920;-34
2022/12/01 11:42:12;;;;;;;;;;;;;;;2.40;81.11;93484.91;5051300;28;19912;-34
2022/12/01 11:44:38;;;;;;;;;;;;;;;2.39;82.37;93496.28;5051204;28;20388;-34
2022/12/01 11:47:13;;;;;;;;;;;;;;;2.33;81.13;93492.81;5050080;28;19962;-34
2022/12/01 11:49:39;;;;;;;;;;;;;;;2.27;82.04;93482.66;5051110;28;19908;-34
2022/12/01 11:52:26;;;;;;;;;;;;;;;2.09;81.84;93483.13;5050182;28;19913;-34
2022/12/01 11:54:55;;;;;;;;;;;;;;;2.12;82.10;93484.13;5051362;28;19909;-34
2022/12/01 11:57:21;;;;;;;;;;;;;;;2.22;82.64;93493.53;5051061;28;19935;-34
2022/12/01 11:59:46;;;;;;;;;;;;;;;2.26;82.52;93485.88;5051268;28;19912;-34
2022/12/01 12:02:22;;;;;;;;;;;;;;;2.26;81.22;93483.91;5050909;28;20301;-34
2022/12/01 12:04:47;;;;;;;;;;;;;;;2.32;82.06;93491.34;5049805;28;19920;-34
2022/12/01 12:07:15;;;;;;;;;;;;;;;2.30;81.64;93498.00;5050712;28;19909;-34
2022/12/01 12:09:46;;;;;;;;;;;;;;;2.23;81.09;93495.03;5051218;28;19912;-34